createdAt,value
2018-03-23T00:01:17.316Z,93.70
2018-03-23T00:03:44.852Z,93.70
2018-03-23T00:06:12.368Z,93.70
2018-03-23T00:08:39.931Z,93.80
2018-03-23T00:11:08.224Z,93.90
2018-03-23T00:13:35.760Z,93.90
2018-03-23T00:16:03.276Z,93.90
2018-03-23T00:18:31.147Z,93.90
2018-03-23T00:20:58.716Z,93.90
2018-03-23T00:23:26.252Z,94.00
2018-03-23T00:25:53.887Z,94.10
2018-03-23T00:28:21.422Z,94.20
2018-03-23T00:30:48.937Z,94.10
2018-03-23T00:33:16.488Z,94.20
2018-03-23T00:35:44.015Z,94.50
2018-03-23T00:38:11.547Z,94.30
2018-03-23T00:40:39.056Z,94.40
2018-03-23T00:43:06.591Z,93.60
2018-03-23T00:45:34.107Z,93.50
2018-03-23T00:48:02.416Z,92.90
2018-03-23T00:50:29.948Z,92.80
2018-03-23T00:52:57.463Z,92.60
2018-03-23T00:55:25.772Z,92.20
2018-03-23T00:57:53.283Z,92.20
2018-03-23T01:00:21.933Z,92.20
2018-03-23T01:02:50.224Z,92.50
2018-03-23T01:05:17.761Z,92.40
2018-03-23T01:07:45.293Z,92.40
2018-03-23T01:10:13.588Z,92.20
2018-03-23T01:12:41.099Z,92.20
2018-03-23T01:15:09.402Z,92.30
2018-03-23T01:17:36.915Z,92.30
2018-03-23T01:20:04.462Z,92.40
2018-03-23T01:22:32.610Z,92.20
2018-03-23T01:25:00.900Z,92.00
2018-03-23T01:27:28.469Z,92.00
2018-03-23T01:29:56.002Z,92.20
2018-03-23T01:32:23.528Z,92.20
2018-03-23T01:34:51.059Z,92.50
2018-03-23T01:37:19.335Z,92.80
2018-03-23T01:39:46.875Z,93.10
2018-03-23T01:42:14.446Z,92.90
2018-03-23T01:44:41.972Z,93.00
2018-03-23T01:47:09.493Z,93.10
2018-03-23T01:49:37.028Z,92.80
2018-03-23T01:52:05.316Z,92.80
2018-03-23T01:54:33.780Z,92.80
2018-03-23T01:57:01.335Z,92.70
2018-03-23T01:59:28.884Z,92.70
2018-03-23T02:01:56.398Z,92.60
2018-03-23T02:04:23.983Z,92.20
2018-03-23T02:06:51.497Z,92.20
2018-03-23T02:09:19.012Z,92.30
2018-03-23T02:11:47.318Z,92.60
2018-03-23T02:14:14.828Z,92.40
2018-03-23T02:16:43.122Z,92.50
2018-03-23T02:19:10.680Z,92.50
2018-03-23T02:21:38.272Z,92.50
2018-03-23T02:24:05.765Z,92.30
2018-03-23T02:26:33.300Z,92.30
2018-03-23T02:29:00.812Z,92.20
2018-03-23T02:31:29.109Z,91.90
2018-03-23T02:33:56.636Z,91.90
2018-03-23T02:36:24.204Z,92.20
2018-03-23T02:38:51.745Z,91.70
2018-03-23T02:41:19.297Z,92.00
2018-03-23T02:43:46.812Z,91.90
2018-03-23T02:46:14.341Z,91.80
2018-03-23T02:48:42.629Z,91.60
2018-03-23T02:51:10.172Z,91.60
2018-03-23T02:53:37.680Z,91.50
2018-03-23T02:56:06.008Z,91.90
2018-03-23T02:58:33.528Z,91.90
2018-03-23T03:01:01.073Z,92.10
2018-03-23T03:03:28.612Z,92.10
2018-03-23T03:05:56.188Z,91.90
2018-03-23T03:08:23.701Z,91.90
2018-03-23T03:10:51.228Z,92.00
2018-03-23T03:13:18.756Z,91.70
2018-03-23T03:15:47.661Z,91.70
2018-03-23T03:18:15.180Z,91.70
2018-03-23T03:20:42.736Z,91.70
2018-03-23T03:23:10.265Z,91.70
2018-03-23T03:25:38.602Z,91.80
2018-03-23T03:28:06.176Z,91.80
2018-03-23T03:30:34.482Z,91.90
2018-03-23T03:33:02.048Z,91.90
2018-03-23T03:35:29.592Z,91.70
2018-03-23T03:37:57.184Z,91.70
2018-03-23T03:40:24.669Z,91.70
2018-03-23T03:42:52.201Z,91.80
2018-03-23T03:45:19.715Z,91.50
2018-03-23T03:47:47.245Z,91.50
2018-03-23T03:50:15.553Z,91.50
2018-03-23T03:52:43.101Z,91.50
2018-03-23T03:55:10.630Z,91.20
2018-03-23T03:57:38.196Z,91.10
2018-03-23T04:00:05.713Z,91.20
2018-03-23T04:02:33.252Z,91.10
2018-03-23T04:05:00.819Z,91.00
2018-03-23T04:07:28.356Z,91.10
2018-03-23T04:09:55.873Z,91.00
2018-03-23T04:12:24.227Z,90.40
2018-03-23T04:14:52.513Z,91.00
2018-03-23T04:17:20.087Z,90.90
2018-03-23T04:19:47.609Z,91.00
2018-03-23T04:22:15.148Z,90.70
2018-03-23T04:24:42.664Z,90.70
2018-03-23T04:27:10.960Z,90.10
2018-03-23T04:29:38.527Z,90.10
2018-03-23T04:32:06.064Z,90.20
2018-03-23T04:34:33.601Z,90.10
2018-03-23T04:37:02.168Z,90.10
2018-03-23T04:39:29.688Z,90.30
2018-03-23T04:41:57.220Z,90.40
2018-03-23T04:44:24.744Z,90.10
2018-03-23T04:46:52.261Z,90.20
2018-03-23T04:49:19.796Z,90.10
2018-03-23T04:51:47.308Z,90.40
2018-03-23T04:54:14.860Z,90.60
2018-03-23T04:56:42.414Z,90.80
2018-03-23T04:59:09.971Z,91.10
2018-03-23T05:01:38.255Z,90.90
2018-03-23T05:04:05.793Z,90.80
2018-03-23T05:06:33.309Z,90.70
2018-03-23T05:09:00.844Z,90.70
2018-03-23T05:11:28.363Z,90.40
2018-03-23T05:13:56.658Z,90.70
2018-03-23T05:16:24.210Z,90.70
2018-03-23T05:18:51.758Z,90.70
2018-03-23T05:21:19.272Z,90.40
2018-03-23T05:23:46.845Z,90.70
2018-03-23T05:26:14.360Z,90.60
2018-03-23T05:28:41.900Z,90.30
2018-03-23T05:31:10.180Z,90.40
2018-03-23T05:33:37.712Z,90.30
2018-03-23T05:36:05.224Z,90.30
2018-03-23T05:38:32.754Z,89.10
2018-03-23T05:41:00.276Z,89.60
2018-03-23T05:43:27.804Z,89.40
2018-03-23T05:45:55.321Z,89.20
2018-03-23T05:48:23.619Z,89.50
2018-03-23T05:50:51.149Z,89.50
2018-03-23T05:53:18.976Z,89.40
2018-03-23T05:55:46.498Z,88.60
2018-03-23T05:58:14.108Z,88.70
2018-03-23T06:00:41.626Z,89.00
2018-03-23T06:03:09.168Z,89.80
2018-03-23T06:05:36.720Z,89.40
2018-03-23T06:08:04.249Z,89.60
2018-03-23T06:10:31.780Z,89.50
2018-03-23T06:13:00.067Z,88.90
2018-03-23T06:15:27.596Z,89.00
2018-03-23T06:17:55.108Z,89.10
2018-03-23T06:20:22.656Z,88.60
2018-03-23T06:22:50.184Z,88.70
2018-03-23T06:25:17.717Z,89.00
2018-03-23T06:27:45.248Z,88.30
2018-03-23T06:30:12.795Z,88.60
2018-03-23T06:32:40.501Z,88.00
2018-03-23T06:35:08.048Z,88.20
2018-03-23T06:37:35.592Z,88.10
2018-03-23T06:40:03.892Z,87.60
2018-03-23T06:42:31.412Z,87.60
2018-03-23T06:44:58.984Z,88.00
2018-03-23T06:47:26.507Z,87.50
2018-03-23T06:49:54.044Z,86.70
2018-03-23T06:52:21.625Z,86.80
2018-03-23T06:54:49.188Z,86.90
2018-03-23T06:57:16.708Z,86.40
2018-03-23T06:59:44.248Z,85.60
2018-03-23T07:02:11.764Z,84.80
2018-03-23T07:04:39.296Z,85.30
2018-03-23T07:07:07.770Z,85.50
2018-03-23T07:09:35.316Z,85.80
2018-03-23T07:12:02.888Z,86.30
2018-03-23T07:14:30.452Z,85.80
2018-03-23T07:16:58.015Z,86.10
2018-03-23T07:19:25.577Z,86.40
2018-03-23T07:21:53.900Z,85.80
2018-03-23T07:24:21.461Z,85.80
2018-03-23T07:26:49.055Z,85.40
2018-03-23T07:29:16.594Z,84.60
2018-03-23T07:31:44.164Z,85.90
2018-03-23T07:34:11.680Z,84.50
2018-03-23T07:36:39.212Z,84.40
2018-03-23T07:39:07.642Z,83.30
2018-03-23T07:41:35.196Z,83.30
2018-03-23T07:44:03.477Z,82.00
2018-03-23T07:46:31.773Z,81.10
2018-03-23T07:48:59.291Z,81.10
2018-03-23T07:51:27.606Z,80.40
2018-03-23T07:53:55.165Z,80.40
2018-03-23T07:56:22.708Z,80.80
2018-03-23T07:58:51.016Z,79.60
2018-03-23T08:01:18.577Z,79.50
2018-03-23T08:03:46.094Z,79.70
2018-03-23T08:06:13.640Z,80.10
2018-03-23T08:08:42.849Z,80.00
2018-03-23T08:11:10.380Z,80.00
2018-03-23T08:13:37.926Z,78.70
2018-03-23T08:16:05.457Z,78.70
2018-03-23T08:18:33.744Z,77.60
2018-03-23T08:21:01.305Z,77.00
2018-03-23T08:23:28.839Z,78.30
2018-03-23T08:25:56.373Z,78.70
2018-03-23T08:28:24.677Z,80.30
2018-03-23T08:30:53.016Z,79.40
2018-03-23T08:33:20.533Z,79.50
2018-03-23T08:35:48.072Z,80.40
2018-03-23T08:38:15.600Z,79.70
2018-03-23T08:40:43.310Z,80.40
2018-03-23T08:43:10.841Z,80.00
2018-03-23T08:45:38.366Z,79.90
2018-03-23T08:48:05.960Z,79.30
2018-03-23T08:50:34.265Z,78.00
2018-03-23T08:53:01.812Z,78.00
2018-03-23T08:55:29.333Z,78.50
2018-03-23T08:57:56.919Z,77.70
2018-03-23T09:00:24.476Z,77.70
2018-03-23T09:02:52.060Z,76.60
2018-03-23T09:05:19.576Z,76.30
2018-03-23T09:07:47.116Z,75.90
2018-03-23T09:10:14.721Z,74.10
2018-03-23T09:12:42.254Z,74.20
2018-03-23T09:15:09.829Z,73.90
2018-03-23T09:17:37.416Z,74.00
2018-03-23T09:20:06.443Z,73.30
2018-03-23T09:22:34.112Z,73.30
2018-03-23T09:25:01.641Z,72.50
2018-03-23T09:27:29.175Z,74.00
2018-03-23T09:29:56.727Z,74.10
2018-03-23T09:32:24.253Z,74.60
2018-03-23T09:34:51.778Z,73.40
2018-03-23T09:37:20.102Z,75.90
2018-03-23T09:39:47.631Z,75.80
2018-03-23T09:42:15.163Z,76.40
2018-03-23T09:44:42.685Z,76.00
2018-03-23T09:47:10.216Z,75.20
2018-03-23T09:49:38.499Z,77.10
2018-03-23T09:52:06.068Z,77.10
2018-03-23T09:54:33.617Z,77.50
2018-03-23T09:57:02.144Z,77.70
2018-03-23T09:59:29.680Z,75.40
2018-03-23T10:01:57.964Z,77.20
2018-03-23T10:04:25.508Z,77.20
2018-03-23T10:06:53.028Z,77.40
2018-03-23T10:09:20.575Z,75.70
2018-03-23T10:11:48.881Z,77.80
2018-03-23T10:14:16.408Z,77.80
2018-03-23T10:16:43.932Z,77.70
2018-03-23T10:19:11.472Z,78.10
2018-03-23T10:21:39.040Z,78.80
2018-03-23T10:24:06.593Z,79.00
2018-03-23T10:26:34.127Z,77.80
2018-03-23T10:29:01.685Z,78.50
2018-03-23T10:31:29.234Z,75.70
2018-03-23T10:33:56.778Z,75.80
2018-03-23T10:36:24.324Z,73.40
2018-03-23T10:38:51.869Z,76.10
2018-03-23T10:41:19.410Z,76.30
2018-03-23T10:43:46.940Z,76.80
2018-03-23T10:46:14.504Z,75.90
2018-03-23T10:48:42.033Z,76.20
2018-03-23T10:51:09.694Z,77.80
2018-03-23T10:53:37.233Z,78.20
2018-03-23T10:56:04.778Z,78.50
2018-03-23T10:58:32.323Z,77.50
2018-03-23T11:01:05.605Z,77.40
2018-03-23T11:03:33.146Z,77.10
2018-03-23T11:06:00.707Z,76.90
2018-03-23T11:08:28.260Z,78.20
2018-03-23T11:10:55.826Z,78.10
2018-03-23T11:13:24.181Z,78.10
2018-03-23T11:15:51.793Z,78.00
2018-03-23T11:18:20.300Z,78.40
2018-03-23T11:20:48.612Z,79.30
2018-03-23T11:23:16.136Z,79.30
2018-03-23T11:25:43.672Z,79.70
2018-03-23T11:28:11.193Z,79.20
2018-03-23T11:30:39.620Z,79.40
2018-03-23T11:33:07.168Z,79.40
2018-03-23T11:35:34.701Z,79.20
2018-03-23T11:38:02.263Z,78.30
2018-03-23T11:40:29.801Z,79.60
2018-03-23T11:42:57.316Z,79.50
2018-03-23T11:45:24.860Z,78.90
2018-03-23T11:47:52.390Z,79.40
2018-03-23T11:50:19.937Z,79.90
2018-03-23T11:52:48.379Z,79.00
2018-03-23T11:55:16.701Z,79.40
2018-03-23T11:57:44.251Z,79.50
2018-03-23T12:00:11.776Z,79.40
2018-03-23T12:02:39.332Z,79.50
2018-03-23T12:05:06.894Z,77.80
2018-03-23T12:07:34.409Z,78.80
2018-03-23T12:10:01.960Z,78.50
2018-03-23T12:12:29.479Z,77.00
2018-03-23T12:14:57.020Z,76.80
2018-03-23T12:17:24.552Z,76.50
2018-03-23T12:19:52.139Z,76.00
2018-03-23T12:22:19.673Z,76.30
2018-03-23T12:24:47.257Z,75.90
2018-03-23T12:27:14.781Z,75.40
2018-03-23T12:29:42.314Z,74.00
2018-03-23T12:32:10.628Z,74.00
2018-03-23T12:34:38.921Z,74.20
2018-03-23T12:37:06.454Z,74.20
2018-03-23T12:39:33.972Z,73.40
2018-03-23T12:42:02.298Z,71.80
2018-03-23T12:44:30.053Z,71.80
2018-03-23T12:46:57.589Z,72.50
2018-03-23T12:49:25.100Z,72.10
2018-03-23T12:51:52.749Z,72.70
2018-03-23T12:54:20.273Z,72.00
2018-03-23T12:56:48.628Z,73.10
2018-03-23T12:59:16.950Z,73.70
2018-03-23T13:01:44.468Z,73.30
2018-03-23T13:04:11.988Z,72.60
2018-03-23T13:06:39.628Z,71.70
2018-03-23T13:09:07.945Z,71.20
2018-03-23T13:11:35.485Z,71.00
2018-03-23T13:14:03.000Z,72.40
2018-03-23T13:16:30.542Z,72.20
2018-03-23T13:18:58.118Z,72.00
2018-03-23T13:21:25.668Z,72.60
2018-03-23T13:23:53.212Z,72.30
2018-03-23T13:26:20.741Z,72.60
2018-03-23T13:28:48.251Z,73.00
2018-03-23T13:31:16.556Z,71.50
2018-03-23T13:33:44.076Z,71.50
2018-03-23T13:36:11.612Z,71.20
2018-03-23T13:38:39.133Z,73.60
2018-03-23T13:41:07.443Z,74.00
2018-03-23T13:43:34.977Z,74.00
2018-03-23T13:46:02.505Z,73.80
2018-03-23T13:48:30.052Z,74.00
2018-03-23T13:50:57.565Z,73.70
2018-03-23T13:53:25.093Z,72.20
2018-03-23T13:55:52.609Z,72.90
2018-03-23T13:58:20.149Z,73.40
2018-03-23T14:00:53.350Z,75.00
2018-03-23T14:03:20.975Z,73.60
2018-03-23T14:05:48.524Z,73.90
2018-03-23T14:08:16.836Z,75.30
2018-03-23T14:10:45.125Z,74.10
2018-03-23T14:13:12.689Z,74.10
2018-03-23T14:15:40.224Z,73.40
2018-03-23T14:18:07.754Z,73.50
2018-03-23T14:20:35.307Z,73.60
2018-03-23T14:23:02.844Z,73.00
2018-03-23T14:25:30.388Z,73.70
2018-03-23T14:27:57.929Z,73.00
2018-03-23T14:30:25.448Z,71.90
2018-03-23T14:32:53.028Z,72.30
2018-03-23T14:35:20.561Z,71.50
2018-03-23T14:37:48.092Z,72.70
2018-03-23T14:40:16.398Z,74.00
2018-03-23T14:42:44.038Z,73.80
2018-03-23T14:45:11.557Z,73.40
2018-03-23T14:47:39.156Z,72.70
2018-03-23T14:50:08.205Z,72.10
2018-03-23T14:52:35.772Z,72.10
2018-03-23T14:55:03.303Z,72.50
2018-03-23T14:57:30.873Z,72.90
2018-03-23T14:59:58.390Z,72.70
2018-03-23T15:02:25.936Z,73.30
2018-03-23T15:04:54.488Z,73.00
2018-03-23T15:07:22.004Z,72.90
2018-03-23T15:09:50.355Z,72.90
2018-03-23T15:12:18.644Z,72.30
2018-03-23T15:14:46.189Z,72.20
2018-03-23T15:17:13.713Z,72.90
2018-03-23T15:19:42.022Z,73.10
2018-03-23T15:22:09.545Z,73.00
2018-03-23T15:24:37.112Z,73.00
2018-03-23T15:27:05.628Z,73.70
2018-03-23T15:29:33.936Z,74.50
2018-03-23T15:32:01.478Z,74.40
2018-03-23T15:34:29.033Z,74.10
2018-03-23T15:36:56.576Z,74.50
2018-03-23T15:39:24.116Z,74.30
2018-03-23T15:41:51.648Z,74.80
2018-03-23T15:44:19.197Z,75.20
2018-03-23T15:46:46.764Z,75.60
2018-03-23T15:49:14.321Z,74.70
2018-03-23T15:51:41.897Z,74.30
2018-03-23T15:54:10.301Z,74.80
2018-03-23T15:56:37.886Z,74.70
2018-03-23T15:59:05.504Z,75.30
2018-03-23T16:01:33.039Z,75.80
2018-03-23T16:04:00.613Z,76.30
2018-03-23T16:06:28.145Z,75.40
2018-03-23T16:08:55.678Z,76.80
2018-03-23T16:11:23.193Z,75.80
2018-03-23T16:13:50.754Z,76.70
2018-03-23T16:16:18.288Z,76.70
2018-03-23T16:18:45.819Z,76.80
2018-03-23T16:21:13.369Z,76.30
2018-03-23T16:23:40.896Z,75.90
2018-03-23T16:26:09.206Z,76.10
2018-03-23T16:28:36.725Z,76.10
2018-03-23T16:31:04.256Z,76.40
2018-03-23T16:33:31.768Z,77.20
2018-03-23T16:35:59.304Z,77.20
2018-03-23T16:38:26.865Z,77.90
2018-03-23T16:40:55.175Z,78.80
2018-03-23T16:43:22.828Z,78.70
2018-03-23T16:45:50.376Z,78.10
2018-03-23T16:48:19.978Z,77.70
2018-03-23T16:50:48.388Z,77.80
2018-03-23T16:53:16.669Z,78.20
2018-03-23T16:55:44.211Z,78.10
2018-03-23T16:58:11.740Z,77.90
2018-03-23T17:00:40.048Z,77.10
2018-03-23T17:03:07.564Z,77.10
2018-03-23T17:05:35.102Z,77.40
2018-03-23T17:08:02.641Z,77.80
2018-03-23T17:10:30.179Z,77.80
2018-03-23T17:12:58.468Z,78.70
2018-03-23T17:15:26.150Z,78.70
2018-03-23T17:17:53.684Z,79.10
2018-03-23T17:20:21.215Z,79.50
2018-03-23T17:22:48.737Z,79.40
2018-03-23T17:25:16.305Z,80.00
2018-03-23T17:27:43.845Z,79.90
2018-03-23T17:30:11.377Z,79.90
2018-03-23T17:32:38.892Z,79.40
2018-03-23T17:35:06.465Z,79.10
2018-03-23T17:37:34.124Z,79.30
2018-03-23T17:40:01.687Z,79.10
2018-03-23T17:42:29.233Z,79.20
2018-03-23T17:44:57.496Z,79.00
2018-03-23T17:47:25.036Z,79.20
2018-03-23T17:49:52.564Z,79.50
2018-03-23T17:52:20.096Z,80.00
2018-03-23T17:54:47.628Z,79.70
2018-03-23T17:57:15.171Z,80.10
2018-03-23T17:59:42.756Z,79.70
2018-03-23T18:02:10.311Z,80.20
2018-03-23T18:04:37.852Z,80.10
2018-03-23T18:07:06.356Z,80.20
2018-03-23T18:09:33.900Z,80.10
2018-03-23T18:12:02.205Z,81.40
2018-03-23T18:14:29.975Z,81.30
2018-03-23T18:16:59.424Z,81.10
2018-03-23T18:19:26.937Z,81.60
2018-03-23T18:21:55.241Z,81.40
2018-03-23T18:24:22.757Z,81.40
2018-03-23T18:26:50.296Z,81.60
2018-03-23T18:29:18.586Z,82.10
2018-03-23T18:31:46.116Z,82.10
2018-03-23T18:34:13.639Z,82.20
2018-03-23T18:36:41.934Z,82.00
2018-03-23T18:39:09.453Z,82.00
2018-03-23T18:41:37.888Z,81.40
2018-03-23T18:44:05.416Z,81.30
2018-03-23T18:46:33.020Z,81.10
2018-03-23T18:49:00.543Z,81.20
2018-03-23T18:51:28.856Z,80.70
2018-03-23T18:53:56.384Z,80.70
2018-03-23T18:56:23.913Z,80.80
2018-03-23T18:58:51.449Z,80.70
2018-03-23T19:01:19.236Z,80.10
2018-03-23T19:03:46.784Z,81.40
2018-03-23T19:06:14.312Z,81.10
2018-03-23T19:08:41.861Z,80.90
2018-03-23T19:11:09.381Z,80.90
2018-03-23T19:13:36.940Z,80.90
2018-03-23T19:16:04.457Z,81.10
2018-03-23T19:18:32.772Z,80.60
2018-03-23T19:21:00.292Z,80.50
2018-03-23T19:23:27.828Z,81.20
2018-03-23T19:25:55.345Z,81.60
2018-03-23T19:28:23.644Z,81.20
2018-03-23T19:30:51.160Z,81.10
2018-03-23T19:33:19.521Z,81.40
2018-03-23T19:35:47.809Z,81.30
2018-03-23T19:38:15.349Z,81.30
2018-03-23T19:40:42.868Z,81.10
2018-03-23T19:43:11.169Z,81.10
2018-03-23T19:45:38.684Z,81.10
2018-03-23T19:48:06.216Z,80.90
2018-03-23T19:50:34.512Z,80.80
2018-03-23T19:53:02.061Z,80.80
2018-03-23T19:55:29.619Z,81.00
2018-03-23T19:57:57.245Z,81.30
2018-03-23T20:00:24.776Z,81.30
2018-03-23T20:02:52.352Z,82.20
2018-03-23T20:05:19.864Z,82.20
2018-03-23T20:07:47.441Z,82.20
2018-03-23T20:10:14.973Z,80.80
2018-03-23T20:12:42.508Z,80.50
2018-03-23T20:15:10.052Z,81.00
2018-03-23T20:17:43.172Z,80.80
2018-03-23T20:20:16.512Z,81.80
2018-03-23T20:22:44.024Z,81.00
2018-03-23T20:25:12.345Z,80.50
2018-03-23T20:27:46.412Z,80.70
2018-03-23T20:30:13.968Z,80.70
2018-03-23T20:32:41.496Z,80.40
2018-03-23T20:35:09.024Z,80.80
2018-03-23T20:37:37.377Z,81.20
2018-03-23T20:40:04.952Z,81.20
2018-03-23T20:42:32.476Z,81.30
2018-03-23T20:45:00.056Z,81.60
2018-03-23T20:47:27.619Z,80.90
2018-03-23T20:49:55.217Z,81.60
2018-03-23T20:52:22.814Z,81.60
2018-03-23T20:54:50.412Z,80.70
2018-03-23T20:57:17.933Z,80.70
2018-03-23T20:59:46.250Z,81.00
2018-03-23T21:02:13.779Z,80.90
2018-03-23T21:04:41.317Z,80.90
2018-03-23T21:07:08.956Z,81.20
2018-03-23T21:09:36.500Z,81.00
2018-03-23T21:12:04.039Z,81.10
2018-03-23T21:14:31.575Z,81.50
2018-03-23T21:16:59.388Z,81.40
2018-03-23T21:19:27.697Z,80.90
2018-03-23T21:21:55.268Z,80.90
2018-03-23T21:24:22.828Z,80.90
2018-03-23T21:26:50.376Z,80.70
2018-03-23T21:29:17.893Z,80.70
2018-03-23T21:31:45.424Z,81.10
2018-03-23T21:34:12.949Z,80.70
2018-03-23T21:36:40.556Z,80.80
2018-03-23T21:39:08.108Z,80.80
2018-03-23T21:41:35.651Z,80.50
2018-03-23T21:44:04.290Z,81.20
2018-03-23T21:46:31.940Z,81.30
2018-03-23T21:48:59.456Z,81.20
2018-03-23T21:51:26.984Z,81.00
2018-03-23T21:53:55.290Z,81.10
2018-03-23T21:56:22.857Z,81.00
2018-03-23T21:58:50.381Z,80.40
2018-03-23T22:01:18.240Z,81.10
2018-03-23T22:03:45.752Z,80.80
2018-03-23T22:06:13.287Z,80.50
2018-03-23T22:08:40.885Z,80.80
2018-03-23T22:11:08.427Z,80.90
2018-03-23T22:13:35.949Z,81.60
2018-03-23T22:16:04.932Z,80.10
2018-03-23T22:18:32.448Z,80.50
2018-03-23T22:20:59.980Z,79.60
2018-03-23T22:23:27.512Z,79.10
2018-03-23T22:25:55.808Z,79.10
2018-03-23T22:28:23.344Z,79.10
2018-03-23T22:30:50.910Z,79.00
2018-03-23T22:33:18.444Z,78.80
2018-03-23T22:35:45.992Z,78.50
2018-03-23T22:38:13.526Z,77.80
2018-03-23T22:40:41.040Z,78.30
2018-03-23T22:43:09.465Z,78.30
2018-03-23T22:45:37.005Z,78.20
2018-03-23T22:48:05.452Z,78.00
2018-03-23T22:50:32.969Z,78.00
2018-03-23T22:53:00.513Z,77.40
2018-03-23T22:55:28.816Z,77.80
2018-03-23T22:57:56.344Z,77.80
2018-03-23T23:00:23.872Z,77.90
2018-03-23T23:02:51.427Z,78.00
2018-03-23T23:05:18.986Z,77.90
2018-03-23T23:07:46.517Z,77.50
2018-03-23T23:10:14.029Z,78.00
2018-03-23T23:12:41.577Z,77.10
2018-03-23T23:15:09.869Z,77.40
2018-03-23T23:17:37.415Z,77.40
2018-03-23T23:20:06.341Z,77.50
2018-03-23T23:22:33.856Z,77.50
2018-03-23T23:25:01.497Z,77.00
2018-03-23T23:27:29.035Z,76.90
2018-03-23T23:29:56.693Z,77.10
2018-03-23T23:32:24.237Z,77.30
2018-03-23T23:34:51.756Z,77.20
2018-03-23T23:37:19.292Z,76.70
2018-03-23T23:39:46.867Z,76.10
2018-03-23T23:42:14.396Z,76.70
2018-03-23T23:44:41.908Z,77.10
2018-03-23T23:47:10.221Z,76.70
2018-03-23T23:49:37.741Z,76.60
2018-03-23T23:52:05.360Z,76.90
2018-03-23T23:54:33.656Z,76.70
2018-03-23T23:57:01.193Z,76.70
2018-03-23T23:59:28.709Z,76.90
